sensor_id;sensor_type;location;lat;lon;timestamp;P1;durP1;ratioP1;P2;durP2;ratioP2
13566;SDS011;6855;48.112;11.298;2022-11-20T00:01:33;2.23;;;1.60;;
13566;SDS011;6855;48.112;11.298;2022-11-20T00:04:00;2.43;;;2.23;;
13566;SDS011;6855;48.112;11.298;2022-11-20T00:06:28;2.10;;;1.90;;
13566;SDS011;6855;48.112;11.298;2022-11-20T00:08:55;3.90;;;2.17;;
13566;SDS011;6855;48.112;11.298;2022-11-20T00:11:23;2.33;;;1.80;;
13566;SDS011;6855;48.112;11.298;2022-11-20T00:13:51;2.40;;;1.80;;
13566;SDS011;6855;48.112;11.298;2022-11-20T00:16:19;1.50;;;1.40;;
13566;SDS011;6855;48.112;11.298;2022-11-20T00:18:48;5.03;;;2.10;;
13566;SDS011;6855;48.112;11.298;2022-11-20T00:21:16;1.47;;;1.37;;
13566;SDS011;6855;48.112;11.298;2022-11-20T00:23:44;2.60;;;1.50;;
13566;SDS011;6855;48.112;11.298;2022-11-20T00:26:11;3.97;;;2.13;;
13566;SDS011;6855;48.112;11.298;2022-11-20T00:28:39;1.67;;;1.57;;
13566;SDS011;6855;48.112;11.298;2022-11-20T00:31:07;2.80;;;1.70;;
13566;SDS011;6855;48.112;11.298;2022-11-20T00:33:35;2.00;;;1.70;;
13566;SDS011;6855;48.112;11.298;2022-11-20T00:36:04;3.20;;;2.07;;
13566;SDS011;6855;48.112;11.298;2022-11-20T00:38:32;2.50;;;2.00;;
13566;SDS011;6855;48.112;11.298;2022-11-20T00:41:00;3.00;;;1.70;;
13566;SDS011;6855;48.112;11.298;2022-11-20T00:43:27;2.70;;;2.00;;
13566;SDS011;6855;48.112;11.298;2022-11-20T00:45:57;3.20;;;1.80;;
13566;SDS011;6855;48.112;11.298;2022-11-20T00:48:25;2.20;;;1.90;;
13566;SDS011;6855;48.112;11.298;2022-11-20T00:50:52;4.80;;;2.57;;
13566;SDS011;6855;48.112;11.298;2022-11-20T00:53:21;2.40;;;1.83;;
13566;SDS011;6855;48.112;11.298;2022-11-20T00:55:54;2.63;;;1.90;;
13566;SDS011;6855;48.112;11.298;2022-11-20T00:58:21;5.27;;;1.80;;
13566;SDS011;6855;48.112;11.298;2022-11-20T01:00:49;2.07;;;1.87;;
13566;SDS011;6855;48.112;11.298;2022-11-20T01:03:16;3.20;;;2.40;;
13566;SDS011;6855;48.112;11.298;2022-11-20T01:05:43;3.57;;;2.10;;
13566;SDS011;6855;48.112;11.298;2022-11-20T01:08:11;2.53;;;2.07;;
13566;SDS011;6855;48.112;11.298;2022-11-20T01:10:39;5.23;;;2.10;;
13566;SDS011;6855;48.112;11.298;2022-11-20T01:13:06;1.97;;;1.77;;
13566;SDS011;6855;48.112;11.298;2022-11-20T01:15:51;2.70;;;1.83;;
13566;SDS011;6855;48.112;11.298;2022-11-20T01:18:18;3.33;;;1.70;;
13566;SDS011;6855;48.112;11.298;2022-11-20T01:20:45;2.70;;;2.20;;
13566;SDS011;6855;48.112;11.298;2022-11-20T01:23:12;3.87;;;1.80;;
13566;SDS011;6855;48.112;11.298;2022-11-20T01:25:41;5.10;;;2.30;;
13566;SDS011;6855;48.112;11.298;2022-11-20T01:28:08;3.50;;;1.90;;
13566;SDS011;6855;48.112;11.298;2022-11-20T01:30:35;2.50;;;2.00;;
13566;SDS011;6855;48.112;11.298;2022-11-20T01:33:02;3.50;;;2.30;;
13566;SDS011;6855;48.112;11.298;2022-11-20T01:35:29;2.70;;;1.77;;
13566;SDS011;6855;48.112;11.298;2022-11-20T01:37:57;2.60;;;2.10;;
13566;SDS011;6855;48.112;11.298;2022-11-20T01:40:24;3.80;;;1.77;;
13566;SDS011;6855;48.112;11.298;2022-11-20T01:42:53;3.40;;;1.93;;
13566;SDS011;6855;48.112;11.298;2022-11-20T01:48:30;1.73;;;1.63;;
13566;SDS011;6855;48.112;11.298;2022-11-20T01:50:58;4.43;;;1.93;;
13566;SDS011;6855;48.112;11.298;2022-11-20T01:53:28;2.83;;;1.97;;
13566;SDS011;6855;48.112;11.298;2022-11-20T01:55:58;2.80;;;1.87;;
13566;SDS011;6855;48.112;11.298;2022-11-20T01:58:30;3.83;;;1.80;;
13566;SDS011;6855;48.112;11.298;2022-11-20T02:00:58;2.50;;;2.13;;
13566;SDS011;6855;48.112;11.298;2022-11-20T02:03:26;3.10;;;2.20;;
13566;SDS011;6855;48.112;11.298;2022-11-20T02:05:55;3.20;;;2.07;;
13566;SDS011;6855;48.112;11.298;2022-11-20T02:08:24;2.47;;;2.00;;
13566;SDS011;6855;48.112;11.298;2022-11-20T02:10:51;5.43;;;2.30;;
13566;SDS011;6855;48.112;11.298;2022-11-20T02:13:18;4.60;;;2.30;;
13566;SDS011;6855;48.112;11.298;2022-11-20T02:16:05;2.80;;;1.90;;
13566;SDS011;6855;48.112;11.298;2022-11-20T02:18:35;4.00;;;2.40;;
13566;SDS011;6855;48.112;11.298;2022-11-20T02:21:03;2.73;;;2.40;;
13566;SDS011;6855;48.112;11.298;2022-11-20T02:23:32;3.77;;;2.30;;
13566;SDS011;6855;48.112;11.298;2022-11-20T02:26:03;3.00;;;2.17;;
13566;SDS011;6855;48.112;11.298;2022-11-20T02:28:31;2.73;;;1.87;;
13566;SDS011;6855;48.112;11.298;2022-11-20T02:30:59;3.63;;;2.23;;
13566;SDS011;6855;48.112;11.298;2022-11-20T02:33:26;2.10;;;1.70;;
13566;SDS011;6855;48.112;11.298;2022-11-20T02:35:53;4.70;;;2.27;;
13566;SDS011;6855;48.112;11.298;2022-11-20T02:38:20;2.70;;;2.17;;
13566;SDS011;6855;48.112;11.298;2022-11-20T02:40:47;2.90;;;1.97;;
13566;SDS011;6855;48.112;11.298;2022-11-20T02:43:16;4.13;;;2.00;;
13566;SDS011;6855;48.112;11.298;2022-11-20T02:45:43;5.80;;;2.33;;
13566;SDS011;6855;48.112;11.298;2022-11-20T02:48:11;3.30;;;2.20;;
13566;SDS011;6855;48.112;11.298;2022-11-20T02:50:38;3.67;;;2.17;;
13566;SDS011;6855;48.112;11.298;2022-11-20T02:53:06;2.47;;;2.27;;
13566;SDS011;6855;48.112;11.298;2022-11-20T02:55:33;2.97;;;1.90;;
13566;SDS011;6855;48.112;11.298;2022-11-20T02:58:00;2.40;;;1.97;;
13566;SDS011;6855;48.112;11.298;2022-11-20T03:00:29;2.67;;;1.73;;
13566;SDS011;6855;48.112;11.298;2022-11-20T03:02:57;2.60;;;1.90;;
13566;SDS011;6855;48.112;11.298;2022-11-20T03:05:24;2.80;;;2.30;;
13566;SDS011;6855;48.112;11.298;2022-11-20T03:07:51;2.60;;;2.40;;
13566;SDS011;6855;48.112;11.298;2022-11-20T03:10:18;2.87;;;2.17;;
13566;SDS011;6855;48.112;11.298;2022-11-20T03:12:45;3.67;;;2.60;;
13566;SDS011;6855;48.112;11.298;2022-11-20T03:15:12;2.93;;;2.30;;
13566;SDS011;6855;48.112;11.298;2022-11-20T03:17:41;3.20;;;2.10;;
13566;SDS011;6855;48.112;11.298;2022-11-20T03:20:08;2.33;;;2.13;;
13566;SDS011;6855;48.112;11.298;2022-11-20T03:22:36;2.67;;;2.47;;
13566;SDS011;6855;48.112;11.298;2022-11-20T03:25:03;2.50;;;2.13;;
13566;SDS011;6855;48.112;11.298;2022-11-20T03:27:31;2.80;;;2.10;;
13566;SDS011;6855;48.112;11.298;2022-11-20T03:29:59;2.17;;;1.97;;
13566;SDS011;6855;48.112;11.298;2022-11-20T03:32:26;3.00;;;2.20;;
13566;SDS011;6855;48.112;11.298;2022-11-20T03:34:55;2.60;;;1.97;;
13566;SDS011;6855;48.112;11.298;2022-11-20T03:37:22;3.93;;;2.53;;
13566;SDS011;6855;48.112;11.298;2022-11-20T03:39:49;3.47;;;2.00;;
13566;SDS011;6855;48.112;11.298;2022-11-20T03:42:16;2.40;;;1.70;;
13566;SDS011;6855;48.112;11.298;2022-11-20T03:45:03;2.63;;;2.10;;
13566;SDS011;6855;48.112;11.298;2022-11-20T03:47:31;3.33;;;2.03;;
13566;SDS011;6855;48.112;11.298;2022-11-20T03:49:59;2.73;;;2.00;;
13566;SDS011;6855;48.112;11.298;2022-11-20T03:52:26;2.27;;;2.07;;
13566;SDS011;6855;48.112;11.298;2022-11-20T03:54:54;2.40;;;2.20;;
13566;SDS011;6855;48.112;11.298;2022-11-20T03:57:21;3.60;;;2.17;;
13566;SDS011;6855;48.112;11.298;2022-11-20T03:59:49;2.33;;;2.13;;
13566;SDS011;6855;48.112;11.298;2022-11-20T04:02:16;2.97;;;2.23;;
13566;SDS011;6855;48.112;11.298;2022-11-20T04:04:43;4.10;;;2.10;;
13566;SDS011;6855;48.112;11.298;2022-11-20T04:07:11;3.10;;;2.30;;
13566;SDS011;6855;48.112;11.298;2022-11-20T04:09:39;2.53;;;2.30;;
13566;SDS011;6855;48.112;11.298;2022-11-20T04:12:06;3.33;;;2.37;;
13566;SDS011;6855;48.112;11.298;2022-11-20T04:14:33;3.17;;;2.10;;
13566;SDS011;6855;48.112;11.298;2022-11-20T04:17:01;2.23;;;2.03;;
13566;SDS011;6855;48.112;11.298;2022-11-20T04:19:28;2.90;;;2.47;;
13566;SDS011;6855;48.112;11.298;2022-11-20T04:21:55;2.10;;;1.90;;
13566;SDS011;6855;48.112;11.298;2022-11-20T04:24:23;2.83;;;2.00;;
13566;SDS011;6855;48.112;11.298;2022-11-20T04:26:51;2.30;;;1.83;;
13566;SDS011;6855;48.112;11.298;2022-11-20T04:29:18;3.00;;;2.10;;
13566;SDS011;6855;48.112;11.298;2022-11-20T04:31:45;2.30;;;2.00;;
13566;SDS011;6855;48.112;11.298;2022-11-20T04:34:12;2.47;;;2.27;;
13566;SDS011;6855;48.112;11.298;2022-11-20T04:36:39;2.93;;;1.90;;
13566;SDS011;6855;48.112;11.298;2022-11-20T04:39:11;3.20;;;2.40;;
13566;SDS011;6855;48.112;11.298;2022-11-20T04:41:40;2.20;;;2.00;;
13566;SDS011;6855;48.112;11.298;2022-11-20T04:44:07;2.80;;;2.37;;
13566;SDS011;6855;48.112;11.298;2022-11-20T04:46:35;2.80;;;2.50;;
13566;SDS011;6855;48.112;11.298;2022-11-20T04:49:03;4.50;;;2.57;;
13566;SDS011;6855;48.112;11.298;2022-11-20T04:51:30;2.80;;;2.43;;
13566;SDS011;6855;48.112;11.298;2022-11-20T04:53:57;5.60;;;2.40;;
13566;SDS011;6855;48.112;11.298;2022-11-20T04:56:24;6.37;;;3.00;;
13566;SDS011;6855;48.112;11.298;2022-11-20T04:58:53;2.40;;;2.20;;
13566;SDS011;6855;48.112;11.298;2022-11-20T05:01:20;2.80;;;2.23;;
13566;SDS011;6855;48.112;11.298;2022-11-20T05:03:48;2.70;;;2.30;;
13566;SDS011;6855;48.112;11.298;2022-11-20T05:06:16;3.50;;;2.37;;
13566;SDS011;6855;48.112;11.298;2022-11-20T05:08:43;4.40;;;2.70;;
13566;SDS011;6855;48.112;11.298;2022-11-20T05:11:11;2.47;;;2.27;;
13566;SDS011;6855;48.112;11.298;2022-11-20T05:13:38;2.67;;;1.97;;
13566;SDS011;6855;48.112;11.298;2022-11-20T05:16:07;2.37;;;2.00;;
13566;SDS011;6855;48.112;11.298;2022-11-20T05:18:35;2.17;;;1.93;;
13566;SDS011;6855;48.112;11.298;2022-11-20T05:21:02;2.53;;;2.07;;
13566;SDS011;6855;48.112;11.298;2022-11-20T05:23:30;6.03;;;2.93;;
13566;SDS011;6855;48.112;11.298;2022-11-20T05:25:57;3.57;;;2.63;;
13566;SDS011;6855;48.112;11.298;2022-11-20T05:28:25;3.43;;;2.40;;
13566;SDS011;6855;48.112;11.298;2022-11-20T05:30:53;2.73;;;2.33;;
13566;SDS011;6855;48.112;11.298;2022-11-20T05:33:23;3.90;;;2.47;;
13566;SDS011;6855;48.112;11.298;2022-11-20T05:35:50;3.07;;;2.27;;
13566;SDS011;6855;48.112;11.298;2022-11-20T05:38:17;2.23;;;1.90;;
13566;SDS011;6855;48.112;11.298;2022-11-20T05:40:44;2.60;;;2.40;;
13566;SDS011;6855;48.112;11.298;2022-11-20T05:43:11;1.70;;;1.60;;
13566;SDS011;6855;48.112;11.298;2022-11-20T05:45:39;2.27;;;2.00;;
13566;SDS011;6855;48.112;11.298;2022-11-20T05:48:06;4.47;;;2.13;;
13566;SDS011;6855;48.112;11.298;2022-11-20T05:50:34;5.70;;;1.80;;
13566;SDS011;6855;48.112;11.298;2022-11-20T05:53:02;1.87;;;1.70;;
13566;SDS011;6855;48.112;11.298;2022-11-20T05:55:29;2.67;;;2.30;;
13566;SDS011;6855;48.112;11.298;2022-11-20T05:57:56;3.40;;;2.10;;
13566;SDS011;6855;48.112;11.298;2022-11-20T06:00:23;2.67;;;2.03;;
13566;SDS011;6855;48.112;11.298;2022-11-20T06:02:50;3.90;;;1.93;;
13566;SDS011;6855;48.112;11.298;2022-11-20T06:05:18;5.35;;;2.50;;
13566;SDS011;6855;48.112;11.298;2022-11-20T06:07:46;2.15;;;1.88;;
13566;SDS011;6855;48.112;11.298;2022-11-20T06:10:13;2.47;;;1.90;;
13566;SDS011;6855;48.112;11.298;2022-11-20T06:12:40;3.17;;;1.83;;
13566;SDS011;6855;48.112;11.298;2022-11-20T06:15:08;2.57;;;1.47;;
13566;SDS011;6855;48.112;11.298;2022-11-20T06:17:35;1.47;;;1.37;;
13566;SDS011;6855;48.112;11.298;2022-11-20T06:20:03;3.13;;;1.50;;
13566;SDS011;6855;48.112;11.298;2022-11-20T06:22:30;1.97;;;1.33;;
13566;SDS011;6855;48.112;11.298;2022-11-20T06:25:00;2.30;;;1.50;;
13566;SDS011;6855;48.112;11.298;2022-11-20T06:27:27;2.27;;;1.63;;
13566;SDS011;6855;48.112;11.298;2022-11-20T06:29:54;2.27;;;2.07;;
13566;SDS011;6855;48.112;11.298;2022-11-20T06:32:21;1.60;;;1.37;;
13566;SDS011;6855;48.112;11.298;2022-11-20T06:34:48;3.63;;;2.27;;
13566;SDS011;6855;48.112;11.298;2022-11-20T06:37:15;5.07;;;2.07;;
13566;SDS011;6855;48.112;11.298;2022-11-20T06:39:43;2.40;;;1.77;;
13566;SDS011;6855;48.112;11.298;2022-11-20T06:42:11;2.70;;;2.40;;
13566;SDS011;6855;48.112;11.298;2022-11-20T06:44:38;2.40;;;1.80;;
13566;SDS011;6855;48.112;11.298;2022-11-20T06:47:05;2.60;;;2.17;;
13566;SDS011;6855;48.112;11.298;2022-11-20T06:49:33;3.10;;;1.97;;
13566;SDS011;6855;48.112;11.298;2022-11-20T06:52:02;1.77;;;1.53;;
13566;SDS011;6855;48.112;11.298;2022-11-20T06:54:29;2.30;;;1.90;;
13566;SDS011;6855;48.112;11.298;2022-11-20T06:56:56;2.90;;;2.00;;
13566;SDS011;6855;48.112;11.298;2022-11-20T06:59:25;5.63;;;2.37;;
13566;SDS011;6855;48.112;11.298;2022-11-20T07:01:52;2.43;;;2.23;;
13566;SDS011;6855;48.112;11.298;2022-11-20T07:04:19;4.53;;;2.27;;
13566;SDS011;6855;48.112;11.298;2022-11-20T07:06:49;4.53;;;3.20;;
13566;SDS011;6855;48.112;11.298;2022-11-20T07:09:19;4.07;;;2.50;;
13566;SDS011;6855;48.112;11.298;2022-11-20T07:11:46;7.23;;;2.70;;
13566;SDS011;6855;48.112;11.298;2022-11-20T07:14:13;4.83;;;2.60;;
13566;SDS011;6855;48.112;11.298;2022-11-20T07:16:42;5.37;;;3.43;;
13566;SDS011;6855;48.112;11.298;2022-11-20T07:19:09;3.97;;;2.53;;
13566;SDS011;6855;48.112;11.298;2022-11-20T07:21:36;5.13;;;3.47;;
13566;SDS011;6855;48.112;11.298;2022-11-20T07:24:03;6.83;;;3.37;;
13566;SDS011;6855;48.112;11.298;2022-11-20T07:26:30;6.13;;;2.73;;
13566;SDS011;6855;48.112;11.298;2022-11-20T07:28:57;5.50;;;2.70;;
13566;SDS011;6855;48.112;11.298;2022-11-20T07:31:25;9.80;;;2.67;;
13566;SDS011;6855;48.112;11.298;2022-11-20T07:33:53;3.20;;;2.60;;
13566;SDS011;6855;48.112;11.298;2022-11-20T07:36:20;2.80;;;2.47;;
13566;SDS011;6855;48.112;11.298;2022-11-20T07:38:48;2.60;;;1.80;;
13566;SDS011;6855;48.112;11.298;2022-11-20T07:41:15;3.37;;;2.40;;
13566;SDS011;6855;48.112;11.298;2022-11-20T07:43:42;3.50;;;2.20;;
13566;SDS011;6855;48.112;11.298;2022-11-20T07:46:09;3.30;;;2.20;;
13566;SDS011;6855;48.112;11.298;2022-11-20T07:48:36;8.13;;;2.33;;
13566;SDS011;6855;48.112;11.298;2022-11-20T07:51:05;3.47;;;2.37;;
13566;SDS011;6855;48.112;11.298;2022-11-20T07:53:32;2.60;;;2.13;;
13566;SDS011;6855;48.112;11.298;2022-11-20T07:55:59;2.80;;;2.30;;
13566;SDS011;6855;48.112;11.298;2022-11-20T07:58:27;3.87;;;2.57;;
13566;SDS011;6855;48.112;11.298;2022-11-20T08:00:55;3.50;;;2.40;;
13566;SDS011;6855;48.112;11.298;2022-11-20T08:03:22;2.10;;;1.90;;
13566;SDS011;6855;48.112;11.298;2022-11-20T08:05:50;10.30;;;4.00;;
13566;SDS011;6855;48.112;11.298;2022-11-20T08:08:18;2.63;;;2.10;;
13566;SDS011;6855;48.112;11.298;2022-11-20T08:10:45;2.30;;;2.10;;
13566;SDS011;6855;48.112;11.298;2022-11-20T08:13:12;2.93;;;2.17;;
13566;SDS011;6855;48.112;11.298;2022-11-20T08:15:57;2.80;;;2.20;;
13566;SDS011;6855;48.112;11.298;2022-11-20T08:18:24;4.17;;;2.77;;
13566;SDS011;6855;48.112;11.298;2022-11-20T08:20:52;2.80;;;2.27;;
13566;SDS011;6855;48.112;11.298;2022-11-20T08:23:20;2.70;;;1.80;;
13566;SDS011;6855;48.112;11.298;2022-11-20T08:25:49;2.80;;;2.23;;
13566;SDS011;6855;48.112;11.298;2022-11-20T08:28:17;2.23;;;1.80;;
13566;SDS011;6855;48.112;11.298;2022-11-20T08:30:44;2.47;;;1.83;;
13566;SDS011;6855;48.112;11.298;2022-11-20T08:33:11;2.00;;;1.80;;
13566;SDS011;6855;48.112;11.298;2022-11-20T08:35:39;2.83;;;1.93;;
13566;SDS011;6855;48.112;11.298;2022-11-20T08:38:06;3.37;;;2.10;;
13566;SDS011;6855;48.112;11.298;2022-11-20T08:40:35;2.20;;;1.70;;
13566;SDS011;6855;48.112;11.298;2022-11-20T08:43:02;4.00;;;2.00;;
13566;SDS011;6855;48.112;11.298;2022-11-20T08:45:29;5.37;;;2.70;;
13566;SDS011;6855;48.112;11.298;2022-11-20T08:47:59;2.40;;;1.83;;
13566;SDS011;6855;48.112;11.298;2022-11-20T08:50:27;7.23;;;2.00;;
13566;SDS011;6855;48.112;11.298;2022-11-20T08:53:01;3.30;;;2.27;;
13566;SDS011;6855;48.112;11.298;2022-11-20T08:55:28;3.10;;;1.80;;
13566;SDS011;6855;48.112;11.298;2022-11-20T08:57:57;1.70;;;1.60;;
13566;SDS011;6855;48.112;11.298;2022-11-20T09:00:24;3.00;;;1.60;;
13566;SDS011;6855;48.112;11.298;2022-11-20T09:02:51;1.40;;;1.30;;
13566;SDS011;6855;48.112;11.298;2022-11-20T09:05:18;1.83;;;1.60;;
13566;SDS011;6855;48.112;11.298;2022-11-20T09:07:45;1.47;;;1.27;;
13566;SDS011;6855;48.112;11.298;2022-11-20T09:10:13;2.27;;;1.83;;
13566;SDS011;6855;48.112;11.298;2022-11-20T09:12:40;2.80;;;1.17;;
13566;SDS011;6855;48.112;11.298;2022-11-20T09:15:09;1.70;;;1.60;;
13566;SDS011;6855;48.112;11.298;2022-11-20T09:17:36;2.27;;;1.60;;
13566;SDS011;6855;48.112;11.298;2022-11-20T09:20:04;1.73;;;1.10;;
13566;SDS011;6855;48.112;11.298;2022-11-20T09:22:31;2.50;;;1.30;;
13566;SDS011;6855;48.112;11.298;2022-11-20T09:24:58;2.63;;;1.67;;
13566;SDS011;6855;48.112;11.298;2022-11-20T09:27:26;1.50;;;1.40;;
13566;SDS011;6855;48.112;11.298;2022-11-20T09:29:53;2.03;;;1.70;;
13566;SDS011;6855;48.112;11.298;2022-11-20T09:32:21;1.60;;;1.30;;
13566;SDS011;6855;48.112;11.298;2022-11-20T09:34:48;1.33;;;1.10;;
13566;SDS011;6855;48.112;11.298;2022-11-20T09:37:16;1.43;;;1.00;;
13566;SDS011;6855;48.112;11.298;2022-11-20T09:39:43;6.50;;;1.83;;
13566;SDS011;6855;48.112;11.298;2022-11-20T09:42:19;2.30;;;1.30;;
13566;SDS011;6855;48.112;11.298;2022-11-20T09:44:50;1.47;;;1.37;;
13566;SDS011;6855;48.112;11.298;2022-11-20T09:47:26;1.30;;;1.10;;
13566;SDS011;6855;48.112;11.298;2022-11-20T09:50:02;1.27;;;1.17;;
13566;SDS011;6855;48.112;11.298;2022-11-20T09:52:32;1.30;;;1.20;;
13566;SDS011;6855;48.112;11.298;2022-11-20T09:55:02;1.83;;;1.23;;
13566;SDS011;6855;48.112;11.298;2022-11-20T09:57:37;2.10;;;1.83;;
13566;SDS011;6855;48.112;11.298;2022-11-20T10:00:08;2.10;;;1.20;;
13566;SDS011;6855;48.112;11.298;2022-11-20T10:02:39;1.67;;;1.57;;
13566;SDS011;6855;48.112;11.298;2022-11-20T10:05:09;1.93;;;1.30;;
13566;SDS011;6855;48.112;11.298;2022-11-20T10:07:39;1.43;;;1.10;;
13566;SDS011;6855;48.112;11.298;2022-11-20T10:10:13;1.30;;;1.20;;
13566;SDS011;6855;48.112;11.298;2022-11-20T10:12:44;3.27;;;1.60;;
13566;SDS011;6855;48.112;11.298;2022-11-20T10:15:18;1.07;;;0.97;;
13566;SDS011;6855;48.112;11.298;2022-11-20T10:17:58;1.73;;;1.10;;
13566;SDS011;6855;48.112;11.298;2022-11-20T10:20:28;5.13;;;1.70;;
13566;SDS011;6855;48.112;11.298;2022-11-20T10:23:07;4.53;;;1.47;;
13566;SDS011;6855;48.112;11.298;2022-11-20T10:25:38;6.30;;;1.30;;
13566;SDS011;6855;48.112;11.298;2022-11-20T10:28:16;3.03;;;1.10;;
13566;SDS011;6855;48.112;11.298;2022-11-20T10:30:48;1.67;;;1.27;;
13566;SDS011;6855;48.112;11.298;2022-11-20T10:33:21;2.60;;;0.90;;
13566;SDS011;6855;48.112;11.298;2022-11-20T10:35:50;2.00;;;1.10;;
13566;SDS011;6855;48.112;11.298;2022-11-20T10:38:21;8.63;;;1.43;;
13566;SDS011;6855;48.112;11.298;2022-11-20T10:40:48;4.37;;;1.47;;
13566;SDS011;6855;48.112;11.298;2022-11-20T10:43:18;3.50;;;1.20;;
13566;SDS011;6855;48.112;11.298;2022-11-20T10:45:48;5.77;;;1.10;;
13566;SDS011;6855;48.112;11.298;2022-11-20T10:48:17;1.13;;;1.03;;
13566;SDS011;6855;48.112;11.298;2022-11-20T10:51:05;3.27;;;1.10;;
13566;SDS011;6855;48.112;11.298;2022-11-20T10:53:40;11.27;;;1.20;;
13566;SDS011;6855;48.112;11.298;2022-11-20T10:56:11;3.40;;;0.90;;
13566;SDS011;6855;48.112;11.298;2022-11-20T10:58:43;2.30;;;1.23;;
13566;SDS011;6855;48.112;11.298;2022-11-20T11:01:14;3.33;;;1.00;;
13566;SDS011;6855;48.112;11.298;2022-11-20T11:03:41;1.67;;;0.90;;
13566;SDS011;6855;48.112;11.298;2022-11-20T11:06:13;2.60;;;1.13;;
13566;SDS011;6855;48.112;11.298;2022-11-20T11:08:42;5.20;;;1.70;;
13566;SDS011;6855;48.112;11.298;2022-11-20T11:11:15;1.80;;;1.27;;
13566;SDS011;6855;48.112;11.298;2022-11-20T11:13:45;10.07;;;1.30;;
13566;SDS011;6855;48.112;11.298;2022-11-20T11:16:16;1.20;;;1.03;;
13566;SDS011;6855;48.112;11.298;2022-11-20T11:18:46;2.40;;;1.47;;
13566;SDS011;6855;48.112;11.298;2022-11-20T11:21:19;1.87;;;1.73;;
13566;SDS011;6855;48.112;11.298;2022-11-20T11:23:48;1.33;;;1.00;;
13566;SDS011;6855;48.112;11.298;2022-11-20T11:26:24;3.40;;;1.00;;
13566;SDS011;6855;48.112;11.298;2022-11-20T11:28:55;1.30;;;1.20;;
13566;SDS011;6855;48.112;11.298;2022-11-20T11:31:23;5.63;;;1.67;;
13566;SDS011;6855;48.112;11.298;2022-11-20T11:33:50;1.93;;;1.33;;
13566;SDS011;6855;48.112;11.298;2022-11-20T11:36:19;3.80;;;0.90;;
13566;SDS011;6855;48.112;11.298;2022-11-20T11:38:50;0.83;;;0.83;;
13566;SDS011;6855;48.112;11.298;2022-11-20T11:41:19;1.47;;;0.93;;
13566;SDS011;6855;48.112;11.298;2022-11-20T11:43:50;1.00;;;0.90;;
13566;SDS011;6855;48.112;11.298;2022-11-20T11:46:35;2.53;;;1.07;;
13566;SDS011;6855;48.112;11.298;2022-11-20T11:49:13;0.87;;;0.83;;
13566;SDS011;6855;48.112;11.298;2022-11-20T11:51:46;3.53;;;1.30;;
13566;SDS011;6855;48.112;11.298;2022-11-20T11:54:17;1.33;;;1.10;;
13566;SDS011;6855;48.112;11.298;2022-11-20T11:56:46;5.13;;;1.13;;
13566;SDS011;6855;48.112;11.298;2022-11-20T11:59:15;1.30;;;1.20;;
13566;SDS011;6855;48.112;11.298;2022-11-20T12:01:44;2.90;;;1.00;;
13566;SDS011;6855;48.112;11.298;2022-11-20T12:04:15;1.20;;;1.10;;
13566;SDS011;6855;48.112;11.298;2022-11-20T12:06:45;1.17;;;1.07;;
13566;SDS011;6855;48.112;11.298;2022-11-20T12:09:15;1.10;;;1.10;;
13566;SDS011;6855;48.112;11.298;2022-11-20T12:11:43;1.90;;;1.33;;
13566;SDS011;6855;48.112;11.298;2022-11-20T12:14:13;4.23;;;1.17;;
13566;SDS011;6855;48.112;11.298;2022-11-20T12:16:41;2.40;;;1.50;;
13566;SDS011;6855;48.112;11.298;2022-11-20T12:19:09;13.33;;;1.70;;
13566;SDS011;6855;48.112;11.298;2022-11-20T12:21:40;8.70;;;1.57;;
13566;SDS011;6855;48.112;11.298;2022-11-20T12:24:25;2.03;;;0.90;;
13566;SDS011;6855;48.112;11.298;2022-11-20T12:26:59;1.70;;;1.17;;
13566;SDS011;6855;48.112;11.298;2022-11-20T12:29:31;2.67;;;1.40;;
13566;SDS011;6855;48.112;11.298;2022-11-20T12:32:03;2.03;;;1.40;;
13566;SDS011;6855;48.112;11.298;2022-11-20T12:34:44;1.87;;;1.33;;
13566;SDS011;6855;48.112;11.298;2022-11-20T12:37:18;2.00;;;1.10;;
13566;SDS011;6855;48.112;11.298;2022-11-20T12:39:49;1.40;;;1.00;;
13566;SDS011;6855;48.112;11.298;2022-11-20T12:42:29;1.27;;;1.17;;
13566;SDS011;6855;48.112;11.298;2022-11-20T12:45:21;1.30;;;1.03;;
13566;SDS011;6855;48.112;11.298;2022-11-20T12:50:38;2.80;;;1.53;;
13566;SDS011;6855;48.112;11.298;2022-11-20T12:53:08;1.70;;;1.50;;
13566;SDS011;6855;48.112;11.298;2022-11-20T12:55:41;3.63;;;2.03;;
13566;SDS011;6855;48.112;11.298;2022-11-20T13:32:06;3.33;;;1.60;;
13566;SDS011;6855;48.112;11.298;2022-11-20T13:34:39;1.60;;;1.40;;
13566;SDS011;6855;48.112;11.298;2022-11-20T13:39:48;1.57;;;1.47;;
13566;SDS011;6855;48.112;11.298;2022-11-20T13:42:20;1.70;;;1.60;;
13566;SDS011;6855;48.112;11.298;2022-11-20T13:44:51;2.90;;;1.60;;
13566;SDS011;6855;48.112;11.298;2022-11-20T13:47:21;1.63;;;1.30;;
13566;SDS011;6855;48.112;11.298;2022-11-20T13:49:49;2.93;;;1.17;;
13566;SDS011;6855;48.112;11.298;2022-11-20T13:52:28;1.20;;;1.10;;
13566;SDS011;6855;48.112;11.298;2022-11-20T13:55:05;2.00;;;1.50;;
13566;SDS011;6855;48.112;11.298;2022-11-20T14:00:24;1.80;;;1.13;;
13566;SDS011;6855;48.112;11.298;2022-11-20T14:03:08;3.47;;;1.30;;
13566;SDS011;6855;48.112;11.298;2022-11-20T14:05:38;1.33;;;1.00;;
13566;SDS011;6855;48.112;11.298;2022-11-20T14:08:11;1.83;;;1.20;;
13566;SDS011;6855;48.112;11.298;2022-11-20T14:10:39;2.80;;;1.60;;
13566;SDS011;6855;48.112;11.298;2022-11-20T14:13:10;2.50;;;1.70;;
13566;SDS011;6855;48.112;11.298;2022-11-20T14:15:37;3.60;;;1.80;;
13566;SDS011;6855;48.112;11.298;2022-11-20T14:18:13;4.20;;;1.10;;
13566;SDS011;6855;48.112;11.298;2022-11-20T14:20:41;6.37;;;2.10;;
13566;SDS011;6855;48.112;11.298;2022-11-20T14:23:09;4.50;;;1.23;;
13566;SDS011;6855;48.112;11.298;2022-11-20T14:25:36;2.20;;;1.23;;
13566;SDS011;6855;48.112;11.298;2022-11-20T14:28:04;1.90;;;1.40;;
13566;SDS011;6855;48.112;11.298;2022-11-20T14:30:36;1.00;;;0.90;;
13566;SDS011;6855;48.112;11.298;2022-11-20T14:33:04;2.60;;;1.23;;
13566;SDS011;6855;48.112;11.298;2022-11-20T14:35:35;1.60;;;1.00;;
13566;SDS011;6855;48.112;11.298;2022-11-20T14:38:03;0.80;;;0.70;;
13566;SDS011;6855;48.112;11.298;2022-11-20T14:40:31;1.10;;;0.60;;
13566;SDS011;6855;48.112;11.298;2022-11-20T14:43:00;2.70;;;0.87;;
13566;SDS011;6855;48.112;11.298;2022-11-20T14:45:28;0.90;;;0.80;;
13566;SDS011;6855;48.112;11.298;2022-11-20T14:47:55;2.90;;;1.03;;
13566;SDS011;6855;48.112;11.298;2022-11-20T14:50:24;0.70;;;0.70;;
13566;SDS011;6855;48.112;11.298;2022-11-20T14:52:53;2.50;;;0.90;;
13566;SDS011;6855;48.112;11.298;2022-11-20T14:55:28;1.77;;;0.90;;
13566;SDS011;6855;48.112;11.298;2022-11-20T14:57:56;1.33;;;0.80;;
13566;SDS011;6855;48.112;11.298;2022-11-20T15:00:24;1.67;;;1.10;;
13566;SDS011;6855;48.112;11.298;2022-11-20T15:02:52;1.37;;;0.90;;
13566;SDS011;6855;48.112;11.298;2022-11-20T15:05:19;2.40;;;1.40;;
13566;SDS011;6855;48.112;11.298;2022-11-20T15:07:47;3.07;;;1.27;;
13566;SDS011;6855;48.112;11.298;2022-11-20T15:10:21;1.20;;;1.10;;
13566;SDS011;6855;48.112;11.298;2022-11-20T15:12:48;3.57;;;1.30;;
13566;SDS011;6855;48.112;11.298;2022-11-20T15:15:17;2.00;;;1.20;;
13566;SDS011;6855;48.112;11.298;2022-11-20T15:17:45;1.53;;;1.00;;
13566;SDS011;6855;48.112;11.298;2022-11-20T15:20:13;1.20;;;0.90;;
13566;SDS011;6855;48.112;11.298;2022-11-20T15:22:41;1.37;;;0.97;;
13566;SDS011;6855;48.112;11.298;2022-11-20T15:25:12;1.73;;;0.90;;
13566;SDS011;6855;48.112;11.298;2022-11-20T15:27:41;1.37;;;1.00;;
13566;SDS011;6855;48.112;11.298;2022-11-20T15:30:12;1.83;;;1.00;;
13566;SDS011;6855;48.112;11.298;2022-11-20T15:32:40;1.17;;;1.07;;
13566;SDS011;6855;48.112;11.298;2022-11-20T15:35:07;1.77;;;1.30;;
13566;SDS011;6855;48.112;11.298;2022-11-20T15:37:35;1.30;;;1.00;;
13566;SDS011;6855;48.112;11.298;2022-11-20T15:40:02;3.27;;;1.20;;
13566;SDS011;6855;48.112;11.298;2022-11-20T15:42:29;1.57;;;1.40;;
13566;SDS011;6855;48.112;11.298;2022-11-20T15:44:58;1.63;;;1.37;;